Time;durP1;ratioP1;P1;durP2;ratioP2;P2;SDS_P1;SDS_P2;PMS_P1;PMS_P2;Temp;Humidity;BMP_temperature;BMP_pressure;BME280_temperature;BME280_humidity;BME280_pressure;Samples;Min_cycle;Max_cycle;Signal;HPM_P1;HPM_P2
2023/05/26 00:00:45;;;;;;;7.93;2.37;;;;;;;;;;5110543;28;20442;-67
2023/05/26 00:03:12;;;;;;;5.30;2.80;;;;;;;;;;5112071;28;20436;-69
2023/05/26 00:05:40;;;;;;;6.50;2.87;;;;;;;;;;5112177;28;20491;-69
2023/05/26 00:08:08;;;;;;;4.17;2.67;;;;;;;;;;5099352;28;20448;-70
2023/05/26 00:10:35;;;;;;;4.27;2.67;;;;;;;;;;5111682;28;20463;-70
2023/05/26 00:13:02;;;;;;;4.20;2.47;;;;;;;;;;5111315;28;21262;-70
2023/05/26 00:15:30;;;;;;;3.70;2.20;;;;;;;;;;5111944;28;20448;-70
2023/05/26 00:17:58;;;;;;;3.10;2.10;;;;;;;;;;5111519;28;20450;-71
2023/05/26 00:20:25;;;;;;;4.00;2.63;;;;;;;;;;5110539;28;20440;-70
2023/05/26 00:22:52;;;;;;;3.47;2.40;;;;;;;;;;5111349;28;20530;-70
2023/05/26 00:25:22;;;;;;;9.60;3.87;;;;;;;;;;5111641;28;20837;-69
2023/05/26 00:27:49;;;;;;;4.03;2.10;;;;;;;;;;5111294;28;20446;-70
2023/05/26 00:30:16;;;;;;;3.73;2.47;;;;;;;;;;5111081;28;20452;-70
2023/05/26 00:32:43;;;;;;;3.63;2.40;;;;;;;;;;5110973;28;20810;-71
2023/05/26 00:35:11;;;;;;;2.60;1.60;;;;;;;;;;5111777;28;20443;-71
2023/05/26 00:37:38;;;;;;;4.33;2.20;;;;;;;;;;5112050;28;20435;-70
2023/05/26 00:40:05;;;;;;;5.60;2.77;;;;;;;;;;5109541;28;20440;-70
2023/05/26 00:42:34;;;;;;;3.13;2.17;;;;;;;;;;5111644;28;20780;-70
2023/05/26 00:45:01;;;;;;;3.93;2.60;;;;;;;;;;5110404;28;20474;-70
2023/05/26 00:47:28;;;;;;;4.33;2.37;;;;;;;;;;5111370;28;20801;-70
2023/05/26 00:49:55;;;;;;;4.83;2.27;;;;;;;;;;5109982;28;20451;-70
2023/05/26 00:52:22;;;;;;;4.13;2.93;;;;;;;;;;5111465;28;20439;-70
2023/05/26 00:54:50;;;;;;;3.80;2.77;;;;;;;;;;5110521;28;20444;-71
2023/05/26 00:57:17;;;;;;;4.33;2.40;;;;;;;;;;5110395;28;20493;-70
2023/05/26 00:59:46;;;;;;;3.87;2.53;;;;;;;;;;5110078;28;20832;-71
2023/05/26 01:02:15;;;;;;;5.80;2.80;;;;;;;;;;5111498;28;20457;-71
2023/05/26 01:04:42;;;;;;;4.87;2.60;;;;;;;;;;5111380;28;20540;-71
2023/05/26 01:07:09;;;;;;;3.37;2.20;;;;;;;;;;5111147;28;20945;-70
2023/05/26 01:09:37;;;;;;;4.90;2.97;;;;;;;;;;5110042;28;20463;-72
2023/05/26 01:12:06;;;;;;;2.83;1.50;;;;;;;;;;5110760;28;20443;-69
2023/05/26 01:14:36;;;;;;;2.30;1.50;;;;;;;;;;5111243;28;20452;-70
2023/05/26 01:17:07;;;;;;;2.70;1.97;;;;;;;;;;5110992;28;20560;-71
2023/05/26 01:19:46;;;;;;;2.77;1.97;;;;;;;;;;5110274;28;20450;-71
2023/05/26 01:22:20;;;;;;;4.23;1.80;;;;;;;;;;5107013;28;20484;-71
2023/05/26 01:24:53;;;;;;;5.80;3.20;;;;;;;;;;5110797;28;20466;-71
2023/05/26 01:27:24;;;;;;;3.50;1.90;;;;;;;;;;5108898;28;20440;-71
2023/05/26 01:29:52;;;;;;;4.40;2.43;;;;;;;;;;5109738;28;20436;-71
2023/05/26 01:32:19;;;;;;;3.80;2.60;;;;;;;;;;5111148;28;20444;-71
2023/05/26 01:34:47;;;;;;;3.00;1.90;;;;;;;;;;5110664;28;20542;-71
2023/05/26 01:37:14;;;;;;;4.03;2.23;;;;;;;;;;5110897;28;20914;-71
2023/05/26 01:39:42;;;;;;;2.83;2.17;;;;;;;;;;5110598;28;20446;-71
2023/05/26 01:42:13;;;;;;;4.53;2.00;;;;;;;;;;5111161;28;20444;-71
2023/05/26 01:44:43;;;;;;;3.17;1.90;;;;;;;;;;5111152;28;20467;-69
2023/05/26 01:47:13;;;;;;;3.93;2.30;;;;;;;;;;5110657;28;20756;-69
2023/05/26 01:49:43;;;;;;;4.87;1.70;;;;;;;;;;5111164;28;20444;-69
2023/05/26 01:52:12;;;;;;;2.93;2.27;;;;;;;;;;5113157;28;20432;-69
2023/05/26 01:54:42;;;;;;;3.27;2.20;;;;;;;;;;5114847;28;20475;-69
2023/05/26 01:57:09;;;;;;;5.23;2.53;;;;;;;;;;5115120;28;20450;-69
2023/05/26 01:59:37;;;;;;;3.83;2.27;;;;;;;;;;5113837;28;20826;-69
2023/05/26 02:02:04;;;;;;;4.40;2.30;;;;;;;;;;5113630;28;20527;-69
2023/05/26 02:04:32;;;;;;;5.33;2.30;;;;;;;;;;5114112;28;20926;-69
2023/05/26 02:07:02;;;;;;;3.13;2.30;;;;;;;;;;5113362;28;20444;-71
2023/05/26 02:09:30;;;;;;;2.60;2.07;;;;;;;;;;5113447;28;20475;-71
2023/05/26 02:11:57;;;;;;;3.20;2.10;;;;;;;;;;5113232;28;20485;-69
2023/05/26 02:14:24;;;;;;;9.80;3.43;;;;;;;;;;5113691;28;20448;-70
2023/05/26 02:16:52;;;;;;;4.13;2.43;;;;;;;;;;5112883;28;20447;-69
2023/05/26 02:19:20;;;;;;;3.87;2.60;;;;;;;;;;5112953;28;20934;-68
2023/05/26 02:21:48;;;;;;;3.10;1.73;;;;;;;;;;5111143;28;20460;-68
2023/05/26 02:24:15;;;;;;;4.23;1.97;;;;;;;;;;5113328;28;20459;-69
2023/05/26 02:26:43;;;;;;;7.13;2.13;;;;;;;;;;5113059;28;20509;-72
2023/05/26 02:29:11;;;;;;;5.07;2.20;;;;;;;;;;5113388;28;20444;-69
2023/05/26 02:31:39;;;;;;;4.47;2.10;;;;;;;;;;5113261;28;20448;-69
2023/05/26 02:34:06;;;;;;;2.80;2.30;;;;;;;;;;5113171;28;20448;-68
2023/05/26 02:36:34;;;;;;;2.97;1.73;;;;;;;;;;5106755;28;20951;-69
2023/05/26 02:39:03;;;;;;;2.43;1.77;;;;;;;;;;5110999;28;20448;-70
2023/05/26 02:41:30;;;;;;;2.77;1.67;;;;;;;;;;5113446;28;20447;-69
2023/05/26 02:43:57;;;;;;;3.27;2.33;;;;;;;;;;5113026;28;20530;-69
2023/05/26 02:46:24;;;;;;;4.00;2.40;;;;;;;;;;5113312;28;20483;-69
2023/05/26 02:48:51;;;;;;;2.80;1.70;;;;;;;;;;5113008;28;20813;-69
2023/05/26 02:51:18;;;;;;;4.33;2.57;;;;;;;;;;5112600;28;20463;-69
2023/05/26 02:53:45;;;;;;;3.90;2.50;;;;;;;;;;5101518;28;20439;-69
2023/05/26 02:56:14;;;;;;;3.57;2.20;;;;;;;;;;5104855;28;20799;-69
2023/05/26 02:58:41;;;;;;;3.53;2.23;;;;;;;;;;5113640;28;20444;-69
2023/05/26 03:01:08;;;;;;;3.47;2.30;;;;;;;;;;5112260;28;20942;-68
2023/05/26 03:03:35;;;;;;;2.60;2.03;;;;;;;;;;5110416;28;20443;-68
2023/05/26 03:06:03;;;;;;;3.50;2.40;;;;;;;;;;5107481;28;21456;-69
2023/05/26 03:08:30;;;;;;;2.87;2.20;;;;;;;;;;5110382;28;20448;-71
2023/05/26 03:10:57;;;;;;;5.00;2.73;;;;;;;;;;5109681;28;20521;-70
2023/05/26 03:13:26;;;;;;;3.50;2.20;;;;;;;;;;5110564;28;20470;-70
2023/05/26 03:15:53;;;;;;;4.27;2.30;;;;;;;;;;5109416;28;20482;-70
2023/05/26 03:18:20;;;;;;;6.03;2.70;;;;;;;;;;5110651;28;20942;-70
2023/05/26 03:20:48;;;;;;;4.40;2.33;;;;;;;;;;5109826;28;20451;-70
2023/05/26 03:23:15;;;;;;;3.93;2.80;;;;;;;;;;5110069;28;20448;-70
2023/05/26 03:25:43;;;;;;;3.47;2.00;;;;;;;;;;5109702;28;21001;-70
2023/05/26 03:28:10;;;;;;;3.83;2.10;;;;;;;;;;5106868;28;20836;-69
2023/05/26 03:30:38;;;;;;;4.23;2.90;;;;;;;;;;5110143;28;20444;-70
2023/05/26 03:33:05;;;;;;;3.50;2.53;;;;;;;;;;5109039;28;20985;-70
2023/05/26 03:35:32;;;;;;;5.83;3.03;;;;;;;;;;5109609;28;20888;-69
2023/05/26 03:37:59;;;;;;;4.63;3.07;;;;;;;;;;5109692;28;20462;-68
2023/05/26 03:40:26;;;;;;;3.93;2.87;;;;;;;;;;5109865;28;20548;-68
2023/05/26 03:42:54;;;;;;;3.03;2.20;;;;;;;;;;5108946;28;20493;-68
2023/05/26 03:45:21;;;;;;;3.80;2.40;;;;;;;;;;5109335;28;20483;-68
2023/05/26 03:47:49;;;;;;;5.17;2.30;;;;;;;;;;5108960;28;20451;-69
2023/05/26 03:50:17;;;;;;;3.13;1.93;;;;;;;;;;5096335;28;20520;-69
2023/05/26 03:52:44;;;;;;;2.40;2.10;;;;;;;;;;5106750;28;20812;-69
2023/05/26 03:55:11;;;;;;;3.50;2.57;;;;;;;;;;5109540;28;20772;-69
2023/05/26 03:57:38;;;;;;;4.30;1.80;;;;;;;;;;5109723;28;20454;-69
2023/05/26 04:00:07;;;;;;;5.00;3.00;;;;;;;;;;5108739;28;20910;-69
2023/05/26 04:02:35;;;;;;;3.90;2.70;;;;;;;;;;5109350;28;20595;-70
2023/05/26 04:05:03;;;;;;;3.80;2.23;;;;;;;;;;5107198;28;20455;-69
2023/05/26 04:07:31;;;;;;;5.80;3.80;;;;;;;;;;5109436;28;20458;-68
2023/05/26 04:09:58;;;;;;;4.40;2.43;;;;;;;;;;5108879;28;20468;-69
2023/05/26 04:12:25;;;;;;;5.10;2.50;;;;;;;;;;5108914;28;20451;-68
2023/05/26 04:14:52;;;;;;;3.20;2.20;;;;;;;;;;5096103;28;20443;-67
2023/05/26 04:17:19;;;;;;;8.00;2.40;;;;;;;;;;5108783;28;20448;-67
2023/05/26 04:19:46;;;;;;;3.50;2.60;;;;;;;;;;5107951;28;20520;-66
2023/05/26 04:22:15;;;;;;;6.43;3.43;;;;;;;;;;5108264;28;20458;-66
2023/05/26 04:24:42;;;;;;;3.03;2.50;;;;;;;;;;5107635;28;20444;-66
2023/05/26 04:27:09;;;;;;;2.90;2.17;;;;;;;;;;5106690;28;20487;-67
2023/05/26 04:29:36;;;;;;;4.43;2.77;;;;;;;;;;5108732;28;20496;-67
2023/05/26 04:32:03;;;;;;;5.30;3.40;;;;;;;;;;5108738;28;20451;-67
2023/05/26 04:34:30;;;;;;;5.53;2.70;;;;;;;;;;5108804;28;20451;-67
2023/05/26 04:37:04;;;;;;;4.90;3.17;;;;;;;;;;5108186;28;20462;-67
2023/05/26 04:39:32;;;;;;;4.50;2.60;;;;;;;;;;5108990;28;20439;-67
2023/05/26 04:42:02;;;;;;;8.53;2.50;;;;;;;;;;5108143;28;20451;-67
2023/05/26 04:44:30;;;;;;;4.00;2.80;;;;;;;;;;5108705;28;20520;-67
2023/05/26 04:47:00;;;;;;;3.87;2.40;;;;;;;;;;5108076;28;20974;-67
2023/05/26 04:49:29;;;;;;;4.17;2.80;;;;;;;;;;5108963;28;21016;-67
2023/05/26 04:51:57;;;;;;;4.27;2.63;;;;;;;;;;5107278;28;20490;-68
2023/05/26 04:54:24;;;;;;;4.17;2.47;;;;;;;;;;5108443;28;20451;-67
2023/05/26 04:56:53;;;;;;;5.70;3.03;;;;;;;;;;5108381;28;20452;-67
2023/05/26 04:59:21;;;;;;;5.93;3.00;;;;;;;;;;5108102;28;20454;-67
2023/05/26 05:01:48;;;;;;;4.40;2.53;;;;;;;;;;5095882;28;20499;-66
2023/05/26 05:04:15;;;;;;;5.93;2.37;;;;;;;;;;5108327;28;20443;-67
2023/05/26 05:06:44;;;;;;;3.80;2.70;;;;;;;;;;5108710;28;20475;-67
2023/05/26 05:09:11;;;;;;;4.37;2.97;;;;;;;;;;5108484;28;20570;-67
2023/05/26 05:11:38;;;;;;;3.83;2.97;;;;;;;;;;5108830;28;20451;-67
2023/05/26 05:14:07;;;;;;;4.30;2.90;;;;;;;;;;5107882;28;20818;-67
2023/05/26 05:16:34;;;;;;;4.50;2.73;;;;;;;;;;5108583;28;20452;-67
2023/05/26 05:19:01;;;;;;;4.30;2.50;;;;;;;;;;5107906;28;20456;-66
2023/05/26 05:21:29;;;;;;;7.13;2.83;;;;;;;;;;5107980;28;20486;-66
2023/05/26 05:23:56;;;;;;;4.23;3.13;;;;;;;;;;5107805;28;20756;-66
2023/05/26 05:26:23;;;;;;;4.67;2.63;;;;;;;;;;5108709;28;20479;-66
2023/05/26 05:28:50;;;;;;;3.63;2.50;;;;;;;;;;5111838;28;20812;-67
2023/05/26 05:31:19;;;;;;;8.63;3.07;;;;;;;;;;5111460;28;20542;-66
2023/05/26 05:33:46;;;;;;;4.47;2.80;;;;;;;;;;5111631;28;20544;-66
2023/05/26 05:36:13;;;;;;;6.93;4.20;;;;;;;;;;5112463;28;20790;-66
2023/05/26 05:38:40;;;;;;;3.90;3.43;;;;;;;;;;5112200;28;20451;-65
2023/05/26 05:41:07;;;;;;;6.77;3.23;;;;;;;;;;5111270;28;20911;-66
2023/05/26 05:43:34;;;;;;;5.00;3.40;;;;;;;;;;5111979;28;20440;-66
2023/05/26 05:46:02;;;;;;;4.33;3.03;;;;;;;;;;5111860;28;20475;-67
2023/05/26 05:48:30;;;;;;;4.33;3.00;;;;;;;;;;5112174;28;20466;-67
2023/05/26 05:50:58;;;;;;;4.40;2.70;;;;;;;;;;5111663;28;20458;-67
2023/05/26 05:53:25;;;;;;;5.00;2.87;;;;;;;;;;5109878;28;20452;-67
2023/05/26 05:55:52;;;;;;;3.50;2.83;;;;;;;;;;5095882;28;20457;-67
2023/05/26 05:58:19;;;;;;;4.10;2.00;;;;;;;;;;5111405;28;20448;-67
2023/05/26 06:00:46;;;;;;;4.90;2.77;;;;;;;;;;5111541;28;20444;-67
2023/05/26 06:03:13;;;;;;;6.33;3.93;;;;;;;;;;5111245;28;20447;-67
2023/05/26 06:05:42;;;;;;;3.93;2.90;;;;;;;;;;5111188;28;20471;-67
2023/05/26 06:08:09;;;;;;;4.20;2.60;;;;;;;;;;5112163;28;20440;-67
2023/05/26 06:10:37;;;;;;;8.67;3.17;;;;;;;;;;5112008;28;20478;-67
2023/05/26 06:13:04;;;;;;;4.57;3.23;;;;;;;;;;5111263;28;20493;-67
2023/05/26 06:15:31;;;;;;;4.17;2.80;;;;;;;;;;5104368;28;20458;-67
2023/05/26 06:17:58;;;;;;;4.57;3.17;;;;;;;;;;5111038;28;20458;-67
2023/05/26 06:20:25;;;;;;;4.60;2.30;;;;;;;;;;5111447;28;20458;-67
2023/05/26 06:22:54;;;;;;;5.53;3.50;;;;;;;;;;5111051;28;20816;-67
2023/05/26 06:25:21;;;;;;;4.10;2.87;;;;;;;;;;5108703;28;20973;-67
2023/05/26 06:27:48;;;;;;;4.30;2.80;;;;;;;;;;5110711;28;20503;-67
2023/05/26 06:30:15;;;;;;;4.60;3.23;;;;;;;;;;5111088;28;20454;-67
2023/05/26 06:32:43;;;;;;;5.27;3.80;;;;;;;;;;5111358;28;20451;-67
2023/05/26 06:35:10;;;;;;;4.80;2.70;;;;;;;;;;5110483;28;20451;-67
2023/05/26 06:37:37;;;;;;;3.60;2.77;;;;;;;;;;5109597;28;20478;-67
2023/05/26 06:40:06;;;;;;;5.83;3.00;;;;;;;;;;5110061;28;20450;-67
2023/05/26 06:42:33;;;;;;;3.60;2.90;;;;;;;;;;5111502;28;20962;-67
2023/05/26 06:45:00;;;;;;;6.20;3.70;;;;;;;;;;5110103;28;20447;-67
2023/05/26 06:47:27;;;;;;;4.03;2.80;;;;;;;;;;5111177;28;20490;-67
2023/05/26 06:49:54;;;;;;;4.30;2.50;;;;;;;;;;5109474;28;20455;-67
2023/05/26 06:52:21;;;;;;;3.87;2.50;;;;;;;;;;5108329;28;20931;-67
2023/05/26 06:54:49;;;;;;;4.37;2.70;;;;;;;;;;5110125;28;20455;-67
2023/05/26 06:57:18;;;;;;;4.10;2.30;;;;;;;;;;5110958;28;20446;-66
2023/05/26 06:59:45;;;;;;;4.30;2.33;;;;;;;;;;5110252;28;20534;-66
2023/05/26 07:02:12;;;;;;;5.27;3.13;;;;;;;;;;5110401;28;20518;-66
2023/05/26 07:04:39;;;;;;;4.10;2.90;;;;;;;;;;5108103;28;20538;-66
2023/05/26 07:07:06;;;;;;;4.13;2.97;;;;;;;;;;5110300;28;20483;-66
2023/05/26 07:09:33;;;;;;;5.93;3.30;;;;;;;;;;5110011;28;20923;-66
2023/05/26 07:12:00;;;;;;;4.70;3.37;;;;;;;;;;5110286;28;20475;-65
2023/05/26 07:14:29;;;;;;;5.90;4.20;;;;;;;;;;5109757;28;20452;-65
2023/05/26 07:16:56;;;;;;;5.03;3.20;;;;;;;;;;5108271;28;20459;-65
2023/05/26 07:19:23;;;;;;;4.13;3.73;;;;;;;;;;5110474;28;20459;-65
2023/05/26 07:21:51;;;;;;;6.13;3.07;;;;;;;;;;5109775;28;20455;-65
2023/05/26 07:24:18;;;;;;;7.43;3.30;;;;;;;;;;5109789;28;20447;-65
2023/05/26 07:26:45;;;;;;;5.80;2.63;;;;;;;;;;5108976;28;20479;-66
2023/05/26 07:29:12;;;;;;;8.50;3.17;;;;;;;;;;5109817;28;20451;-66
2023/05/26 07:31:41;;;;;;;5.23;2.57;;;;;;;;;;5110651;28;20448;-66
2023/05/26 07:34:10;;;;;;;5.67;3.07;;;;;;;;;;5109880;28;20451;-66
2023/05/26 07:36:37;;;;;;;4.10;2.40;;;;;;;;;;5109768;28;20984;-68
2023/05/26 07:39:04;;;;;;;5.17;3.47;;;;;;;;;;5109309;28;20450;-66
2023/05/26 07:41:31;;;;;;;3.77;3.00;;;;;;;;;;5109953;28;20455;-66
2023/05/26 07:43:58;;;;;;;5.00;2.70;;;;;;;;;;5108869;28;20452;-66
2023/05/26 07:46:25;;;;;;;5.17;3.60;;;;;;;;;;5109714;28;20502;-66
2023/05/26 07:48:54;;;;;;;5.17;3.47;;;;;;;;;;5109114;28;20868;-66
2023/05/26 07:51:21;;;;;;;4.07;3.40;;;;;;;;;;5109796;28;20538;-66
2023/05/26 07:53:48;;;;;;;3.67;2.83;;;;;;;;;;5106718;28;20439;-66
2023/05/26 07:56:15;;;;;;;2.73;2.17;;;;;;;;;;5109818;28;20452;-66
2023/05/26 07:58:43;;;;;;;5.30;3.40;;;;;;;;;;5109763;28;20467;-66
2023/05/26 08:01:10;;;;;;;6.90;3.10;;;;;;;;;;5096339;28;20462;-67
2023/05/26 08:03:37;;;;;;;2.60;1.97;;;;;;;;;;5108369;28;20459;-67
2023/05/26 08:06:06;;;;;;;5.63;3.27;;;;;;;;;;5108304;28;20455;-67
2023/05/26 08:08:33;;;;;;;4.20;3.30;;;;;;;;;;5108921;28;20910;-67
2023/05/26 08:11:00;;;;;;;4.20;2.87;;;;;;;;;;5108837;28;20443;-68
2023/05/26 08:13:27;;;;;;;4.10;2.13;;;;;;;;;;5108951;28;20457;-68
2023/05/26 08:15:54;;;;;;;4.50;2.77;;;;;;;;;;5108679;28;20451;-68
2023/05/26 08:18:21;;;;;;;4.27;2.43;;;;;;;;;;5108913;28;20470;-67
2023/05/26 08:20:52;;;;;;;3.90;2.67;;;;;;;;;;5108161;28;20454;-67
2023/05/26 08:23:20;;;;;;;3.13;2.47;;;;;;;;;;5109151;28;20572;-68
2023/05/26 08:25:47;;;;;;;7.10;3.43;;;;;;;;;;5110192;28;20456;-68
2023/05/26 08:28:15;;;;;;;4.50;3.20;;;;;;;;;;5111163;28;20986;-67
2023/05/26 08:30:42;;;;;;;4.00;2.80;;;;;;;;;;5111438;28;20907;-67
2023/05/26 08:33:09;;;;;;;4.37;3.00;;;;;;;;;;5111222;28;20450;-68
2023/05/26 08:35:37;;;;;;;7.13;3.00;;;;;;;;;;5111935;28;20541;-67
2023/05/26 08:38:04;;;;;;;4.60;2.77;;;;;;;;;;5111040;28;20452;-68
2023/05/26 08:40:33;;;;;;;6.27;4.00;;;;;;;;;;5111381;28;20454;-68
2023/05/26 08:43:07;;;;;;;4.53;3.10;;;;;;;;;;5110577;28;20947;-68
2023/05/26 08:45:34;;;;;;;3.23;2.60;;;;;;;;;;5110920;28;20436;-68
2023/05/26 08:48:02;;;;;;;6.20;3.43;;;;;;;;;;5110740;28;20487;-68
2023/05/26 08:50:30;;;;;;;7.00;3.00;;;;;;;;;;5111560;28;20787;-68
2023/05/26 08:52:57;;;;;;;7.10;3.40;;;;;;;;;;5110262;28;20497;-67
2023/05/26 08:55:25;;;;;;;4.07;2.70;;;;;;;;;;5108063;28;20441;-68
2023/05/26 08:57:54;;;;;;;4.87;3.43;;;;;;;;;;5110719;28;20513;-68
2023/05/26 09:00:21;;;;;;;4.07;2.60;;;;;;;;;;5103532;28;20503;-68
2023/05/26 09:02:48;;;;;;;3.73;2.57;;;;;;;;;;5115810;27;20447;-68
2023/05/26 09:05:16;;;;;;;5.93;3.50;;;;;;;;;;5114443;28;20444;-67
2023/05/26 09:07:43;;;;;;;3.40;2.77;;;;;;;;;;5113475;28;20982;-69
2023/05/26 09:10:23;;;;;;;3.67;2.63;;;;;;;;;;5114801;28;20500;-67
2023/05/26 09:12:52;;;;;;;3.90;2.90;;;;;;;;;;5114440;27;20439;-67
2023/05/26 09:15:21;;;;;;;7.20;2.90;;;;;;;;;;5104578;28;20958;-67
2023/05/26 09:17:49;;;;;;;3.20;2.53;;;;;;;;;;5113759;28;20448;-67
2023/05/26 09:20:16;;;;;;;5.83;2.70;;;;;;;;;;5114867;28;20444;-67
2023/05/26 09:22:45;;;;;;;6.77;3.17;;;;;;;;;;5114311;28;20455;-69
2023/05/26 09:25:12;;;;;;;3.90;2.80;;;;;;;;;;5112388;28;20450;-67
2023/05/26 09:27:39;;;;;;;3.07;2.77;;;;;;;;;;5114295;28;20475;-67
2023/05/26 09:30:07;;;;;;;3.57;2.43;;;;;;;;;;5114159;28;20943;-67
2023/05/26 09:32:37;;;;;;;3.30;2.37;;;;;;;;;;5115169;28;20449;-67
2023/05/26 09:35:04;;;;;;;4.50;2.57;;;;;;;;;;5113732;28;20530;-67
2023/05/26 09:37:32;;;;;;;3.40;2.60;;;;;;;;;;5114535;28;20946;-67
2023/05/26 09:40:08;;;;;;;4.80;3.57;;;;;;;;;;5114179;28;20524;-68
2023/05/26 09:42:36;;;;;;;4.80;2.80;;;;;;;;;;5114867;28;20809;-68
2023/05/26 09:45:04;;;;;;;3.40;2.63;;;;;;;;;;5113319;28;20970;-68
2023/05/26 09:47:33;;;;;;;3.13;2.67;;;;;;;;;;5114676;28;20481;-68
2023/05/26 09:50:05;;;;;;;6.37;3.50;;;;;;;;;;5114186;28;20871;-67
2023/05/26 09:52:32;;;;;;;4.60;2.80;;;;;;;;;;5114277;28;20900;-67
2023/05/26 09:55:00;;;;;;;4.80;2.67;;;;;;;;;;5112487;28;20777;-68
2023/05/26 09:57:29;;;;;;;5.60;3.40;;;;;;;;;;5105355;28;20451;-67
2023/05/26 09:59:57;;;;;;;2.67;2.43;;;;;;;;;;5113854;28;20884;-68
2023/05/26 10:02:25;;;;;;;4.10;2.80;;;;;;;;;;5114320;28;20444;-68
2023/05/26 10:04:53;;;;;;;3.80;2.83;;;;;;;;;;5112295;28;20479;-68
2023/05/26 10:07:22;;;;;;;4.90;3.10;;;;;;;;;;5102689;28;20471;-67
2023/05/26 10:09:51;;;;;;;4.33;3.20;;;;;;;;;;5108637;28;20992;-67
2023/05/26 10:12:20;;;;;;;5.10;3.10;;;;;;;;;;5112460;28;20456;-68
2023/05/26 10:14:48;;;;;;;4.67;3.20;;;;;;;;;;5112639;28;20451;-67
2023/05/26 10:17:15;;;;;;;4.20;2.80;;;;;;;;;;5113660;28;20448;-67
2023/05/26 10:19:43;;;;;;;6.63;3.80;;;;;;;;;;5113013;28;20546;-67
2023/05/26 10:22:13;;;;;;;4.00;3.10;;;;;;;;;;5113304;28;20444;-67
2023/05/26 10:24:45;;;;;;;3.47;2.80;;;;;;;;;;5112146;28;21085;-67
2023/05/26 10:27:15;;;;;;;4.90;2.60;;;;;;;;;;5113325;28;20448;-67
2023/05/26 10:29:46;;;;;;;4.27;2.60;;;;;;;;;;5114242;28;20458;-67
2023/05/26 10:32:28;;;;;;;4.23;2.77;;;;;;;;;;5112401;28;20468;-67
2023/05/26 10:34:57;;;;;;;4.50;3.00;;;;;;;;;;5103490;28;20444;-67
2023/05/26 10:37:27;;;;;;;2.70;2.30;;;;;;;;;;5113331;28;20444;-67
2023/05/26 10:39:56;;;;;;;3.70;2.83;;;;;;;;;;5110970;28;20447;-67
2023/05/26 10:42:25;;;;;;;4.97;3.00;;;;;;;;;;5113674;28;20471;-67
2023/05/26 10:44:54;;;;;;;6.70;4.60;;;;;;;;;;5110723;28;20450;-67
2023/05/26 10:47:22;;;;;;;5.23;3.00;;;;;;;;;;5112844;28;20448;-68
2023/05/26 10:49:56;;;;;;;4.73;3.33;;;;;;;;;;5114754;27;20452;-67
2023/05/26 10:52:24;;;;;;;3.70;3.23;;;;;;;;;;5113134;28;20945;-67
2023/05/26 10:54:52;;;;;;;5.17;3.00;;;;;;;;;;5112675;27;20825;-68
2023/05/26 10:57:34;;;;;;;4.77;3.00;;;;;;;;;;5113881;28;20519;-68
2023/05/26 11:00:16;;;;;;;4.23;2.90;;;;;;;;;;5112988;28;20450;-68
2023/05/26 11:02:43;;;;;;;4.77;2.63;;;;;;;;;;5113462;28;20523;-69
2023/05/26 11:05:30;;;;;;;4.17;3.23;;;20.20;1.00;;;;;;5116845;27;20454;-67
2023/05/26 11:07:57;;;;;;;4.23;3.30;;;22.60;30.90;;;;;;5112203;28;20520;-68
2023/05/26 11:10:24;;;;;;;3.60;2.23;;;22.40;23.80;;;;;;5112767;28;20482;-69
2023/05/26 11:12:54;;;;;;;3.87;2.23;;;22.10;15.40;;;;;;5113948;27;20462;-68
2023/05/26 11:15:28;;;;;;;3.90;3.30;;;22.50;14.40;;;;;;5113239;28;20493;-67
2023/05/26 11:17:57;;;;;;;6.03;2.93;;;22.60;15.30;;;;;;5111843;28;20814;-68
2023/05/26 11:20:24;;;;;;;4.07;2.90;;;22.90;12.50;;;;;;5115649;27;20451;-67
2023/05/26 11:22:52;;;;;;;3.40;2.73;;;22.90;10.30;;;;;;5111132;28;20819;-67
2023/05/26 11:25:19;;;;;;;4.27;2.93;;;22.90;8.10;;;;;;5111689;28;20443;-68
2023/05/26 11:27:46;;;;;;;3.67;2.40;;;23.30;5.30;;;;;;5118158;27;20496;-67
2023/05/26 11:30:15;;;;;;;2.40;2.20;;;23.20;5.10;;;;;;5112057;28;20502;-67
2023/05/26 11:32:45;;;;;;;3.30;2.47;;;23.10;4.90;;;;;;5112247;28;21022;-67
2023/05/26 11:35:22;;;;;;;3.80;2.60;;;23.30;3.30;;;;;;5110646;28;20946;-68
2023/05/26 11:37:49;;;;;;;3.93;2.23;;;23.20;1.00;;;;;;5111532;28;20500;-67
2023/05/26 11:40:16;;;;;;;5.27;2.70;;;23.40;1.00;;;;;;5112400;28;20458;-67
2023/05/26 11:42:44;;;;;;;3.10;2.20;;;23.30;1.00;;;;;;5111969;28;20440;-69
2023/05/26 11:45:11;;;;;;;3.87;2.60;;;23.40;1.00;;;;;;5112192;28;20450;-67
2023/05/26 11:47:40;;;;;;;4.07;2.97;;;23.40;1.00;;;;;;5112255;28;20462;-67
2023/05/26 11:50:08;;;;;;;3.87;2.80;;;23.40;1.00;;;;;;5112177;28;20496;-67
2023/05/26 11:52:35;;;;;;;3.57;2.70;;;23.40;1.00;;;;;;5111999;28;20454;-67
2023/05/26 11:55:02;;;;;;;4.80;2.53;;;23.70;1.00;;;;;;5111313;28;20448;-67
2023/05/26 11:57:33;;;;;;;5.00;3.07;;;23.70;1.00;;;;;;5111961;28;20443;-67
2023/05/26 11:59:59;;;;;;;4.00;2.50;;;23.50;1.00;;;;;;5111738;28;20519;-67
2023/05/26 12:02:26;;;;;;;4.53;3.10;;;23.50;1.00;;;;;;5112299;28;20818;-67
2023/05/26 12:04:54;;;;;;;2.93;2.27;;;23.60;1.00;;;;;;5109346;28;20444;-67
2023/05/26 12:07:27;;;;;;;4.10;2.87;;;23.90;1.00;;;;;;5111948;27;20443;-68
2023/05/26 12:10:04;;;;;;;3.13;2.60;;;23.80;1.00;;;;;;5111967;27;21059;-68
2023/05/26 12:12:33;;;;;;;3.80;3.00;;;23.70;1.00;;;;;;5111846;28;20455;-68
2023/05/26 12:15:09;;;;;;;3.80;2.70;;;23.60;1.00;;;;;;5114115;27;20466;-67
2023/05/26 12:17:36;;;;;;;3.20;2.70;;;23.90;1.00;;;;;;5111924;28;20492;-68
2023/05/26 12:20:05;;;;;;;3.03;2.30;;;23.90;1.00;;;;;;5110610;28;20455;-67
2023/05/26 12:22:32;;;;;;;4.23;2.53;;;24.00;1.00;;;;;;5111096;27;20451;-68
2023/05/26 12:25:00;;;;;;;3.53;2.30;;;23.90;1.00;;;;;;5110585;28;20447;-67
2023/05/26 12:27:35;;;;;;;3.50;2.83;;;23.90;1.00;;;;;;5111427;28;20440;-67
2023/05/26 12:30:17;;;;;;;3.00;2.53;;;23.90;1.00;;;;;;5111299;28;20728;-67
2023/05/26 12:32:44;;;;;;;3.53;2.43;;;24.10;1.00;;;;;;5115473;27;20862;-68
2023/05/26 12:35:12;;;;;;;4.23;2.77;;;23.80;1.00;;;;;;5115920;27;20434;-67
2023/05/26 12:37:39;;;;;;;3.73;2.30;;;23.70;1.00;;;;;;5108014;28;20443;-67
2023/05/26 12:40:07;;;;;;;3.40;2.63;;;23.70;1.00;;;;;;5110635;28;20839;-68
2023/05/26 12:42:34;;;;;;;4.80;3.00;;;23.60;1.00;;;;;;5111395;28;20456;-67
2023/05/26 12:45:01;;;;;;;4.73;2.70;;;23.80;1.00;;;;;;5110407;28;20448;-67
2023/05/26 12:47:28;;;;;;;3.40;2.50;;;;;;;;;;5111462;28;20463;-68
2023/05/26 12:49:55;;;;;;;3.17;2.10;;;;;;;;;;5110015;28;20486;-68
2023/05/26 12:52:23;;;;;;;2.90;2.23;;;;;;;;;;5110715;28;20443;-67
2023/05/26 12:54:50;;;;;;;2.80;2.00;;;;;;;;;;5109819;28;20938;-68
2023/05/26 12:57:18;;;;;;;2.77;2.33;;;;;;;;;;5102098;28;20908;-68
2023/05/26 12:59:45;;;;;;;4.17;3.07;;;;;;;;;;5110472;28;20440;-68
2023/05/26 13:02:12;;;;;;;3.73;2.93;;;24.10;1.00;;;;;;5110991;28;20974;-68
2023/05/26 13:04:39;;;;;;;3.30;2.63;;;24.20;1.00;;;;;;5110508;28;20452;-67
2023/05/26 13:07:08;;;;;;;3.20;2.43;;;24.40;1.00;;;;;;5109764;28;20473;-68
2023/05/26 13:09:36;;;;;;;4.70;2.57;;;24.50;1.00;;;;;;5109996;28;20502;-68
2023/05/26 13:12:03;;;;;;;4.30;2.93;;;24.70;1.00;;;;;;5109897;28;20696;-68
2023/05/26 13:14:29;;;;;;;3.73;2.70;;;24.80;1.00;;;;;;5109385;28;20463;-68
2023/05/26 13:16:56;;;;;;;4.13;2.47;;;24.30;1.00;;;;;;5109613;28;20784;-68
2023/05/26 13:19:23;;;;;;;3.20;2.73;;;24.10;1.00;;;;;;5111129;28;20460;-67
2023/05/26 13:21:50;;;;;;;3.13;2.40;;;24.30;1.00;;;;;;5110195;28;20458;-68
2023/05/26 13:24:16;;;;;;;4.50;2.40;;;24.50;1.00;;;;;;5110527;28;20447;-68
2023/05/26 13:26:44;;;;;;;4.37;2.87;;;24.40;1.00;;;;;;5110670;28;20447;-68
2023/05/26 13:29:11;;;;;;;3.27;2.20;;;24.50;1.00;;;;;;5110620;28;20467;-67
2023/05/26 13:31:38;;;;;;;4.13;2.40;;;24.60;1.00;;;;;;5110399;28;20447;-68
2023/05/26 13:34:05;;;;;;;2.50;2.10;;;24.70;1.00;;;;;;5110006;28;20538;-68
2023/05/26 13:36:32;;;;;;;8.70;7.77;;;25.30;1.00;;;;;;5108974;28;21040;-68
2023/05/26 13:38:59;;;;;;;4.53;3.30;;;25.20;1.00;;;;;;5109736;28;20448;-69
2023/05/26 13:41:26;;;;;;;4.90;2.57;;;25.20;1.00;;;;;;5110445;28;20448;-69
2023/05/26 13:43:54;;;;;;;3.80;2.70;;;25.20;1.00;;;;;;5110278;28;20808;-68
2023/05/26 13:46:21;;;;;;;3.20;2.10;;;24.90;1.00;;;;;;5106052;28;20943;-68
2023/05/26 13:48:48;;;;;;;2.80;2.50;;;25.10;1.00;;;;;;5101041;28;20479;-68
2023/05/26 13:51:15;;;;;;;3.20;1.93;;;25.50;1.00;;;;;;5114556;28;20475;-68
2023/05/26 13:53:42;;;;;;;3.40;2.70;;;25.70;1.00;;;;;;5114727;28;20485;-68
2023/05/26 13:56:09;;;;;;;3.17;2.83;;;26.20;1.00;;;;;;5104848;28;20444;-68
2023/05/26 13:58:36;;;;;;;3.20;2.60;;;26.60;1.00;;;;;;5113123;28;20455;-68
2023/05/26 14:01:04;;;;;;;2.80;1.80;;;27.10;1.00;;;;;;5105826;28;21016;-67
2023/05/26 14:03:31;;;;;;;2.97;2.30;;;27.50;1.00;;;;;;5114309;28;20495;-68
2023/05/26 14:05:58;;;;;;;4.60;2.77;;;27.30;1.00;;;;;;5112945;28;20519;-67
2023/05/26 14:08:25;;;;;;;3.50;2.67;;;27.40;1.00;;;;;;5113447;28;20501;-68
2023/05/26 14:10:52;;;;;;;3.33;2.67;;;;;;;;;;5113308;28;20513;-69
2023/05/26 14:13:19;;;;;;;3.47;2.30;;;;;;;;;;5114420;28;20764;-69
2023/05/26 14:15:46;;;;;;;3.80;2.97;;;;;;;;;;5105326;27;20443;-70
2023/05/26 14:18:15;;;;;;;3.97;2.37;;;;;;;;;;5118012;28;20778;-68
2023/05/26 14:20:42;;;;;;;3.58;2.55;;;;;;;;;;5122600;27;20276;-68
2023/05/26 14:23:09;;;;;;;3.15;2.60;;;;;;;;;;5117457;27;20193;-68